sensor_id;sensor_type;location;lat;lon;timestamp;pressure;altitude;pressure_sealevel;temperature;humidity
52983;BME280;48698;45.736;13.926;2024-03-02T00:03:27;96840.09;;;8.65;100.00
52983;BME280;48698;45.736;13.926;2024-03-02T00:08:31;96816.34;;;8.48;100.00
52983;BME280;48698;45.736;13.926;2024-03-02T00:13:34;96660.09;;;7.57;100.00
52983;BME280;48698;45.736;13.926;2024-03-02T00:18:39;96711.53;;;7.82;100.00
52983;BME280;48698;45.736;13.926;2024-03-02T00:23:42;96793.47;;;8.47;100.00
52983;BME280;48698;45.736;13.926;2024-03-02T00:28:46;96913.16;;;8.99;100.00
52983;BME280;48698;45.736;13.926;2024-03-02T00:33:51;96904.28;;;9.00;100.00
52983;BME280;48698;45.736;13.926;2024-03-02T00:38:55;96677.94;;;7.85;100.00
52983;BME280;48698;45.736;13.926;2024-03-02T00:44:02;96776.56;;;8.49;100.00
52983;BME280;48698;45.736;13.926;2024-03-02T00:49:18;96888.47;;;9.14;100.00
52983;BME280;48698;45.736;13.926;2024-03-02T00:54:26;96695.84;;;7.95;100.00
52983;BME280;48698;45.736;13.926;2024-03-02T00:59:30;96780.50;;;8.58;100.00
52983;BME280;48698;45.736;13.926;2024-03-02T01:04:34;96894.69;;;9.13;100.00
52983;BME280;48698;45.736;13.926;2024-03-02T01:09:38;96887.31;;;8.88;100.00
52983;BME280;48698;45.736;13.926;2024-03-02T01:14:41;96865.19;;;8.73;100.00
52983;BME280;48698;45.736;13.926;2024-03-02T01:19:45;96812.38;;;8.08;100.00
52983;BME280;48698;45.736;13.926;2024-03-02T01:24:48;96916.22;;;8.75;100.00
52983;BME280;48698;45.736;13.926;2024-03-02T01:29:53;96741.66;;;7.47;100.00
52983;BME280;48698;45.736;13.926;2024-03-02T01:34:57;96928.91;;;8.20;100.00
52983;BME280;48698;45.736;13.926;2024-03-02T01:40:01;96671.81;;;6.53;100.00
52983;BME280;48698;45.736;13.926;2024-03-02T01:45:07;96946.69;;;8.18;100.00
52983;BME280;48698;45.736;13.926;2024-03-02T01:50:11;96919.00;;;8.08;100.00
52983;BME280;48698;45.736;13.926;2024-03-02T01:55:15;96945.50;;;8.24;100.00
52983;BME280;48698;45.736;13.926;2024-03-02T02:00:19;96949.97;;;8.39;100.00
52983;BME280;48698;45.736;13.926;2024-03-02T02:05:23;96942.66;;;8.44;100.00
52983;BME280;48698;45.736;13.926;2024-03-02T02:10:27;96923.91;;;8.64;100.00
52983;BME280;48698;45.736;13.926;2024-03-02T02:15:31;96924.50;;;8.69;100.00
52983;BME280;48698;45.736;13.926;2024-03-02T02:20:35;96897.94;;;8.55;100.00
52983;BME280;48698;45.736;13.926;2024-03-02T02:25:38;96705.34;;;7.51;100.00
52983;BME280;48698;45.736;13.926;2024-03-02T02:30:42;96664.72;;;7.20;100.00
52983;BME280;48698;45.736;13.926;2024-03-02T02:35:46;96752.31;;;7.94;100.00
52983;BME280;48698;45.736;13.926;2024-03-02T02:40:49;96841.78;;;8.35;100.00
52983;BME280;48698;45.736;13.926;2024-03-02T02:45:53;96839.72;;;8.40;100.00
52983;BME280;48698;45.736;13.926;2024-03-02T02:50:56;96797.31;;;7.93;100.00
52983;BME280;48698;45.736;13.926;2024-03-02T02:55:59;96882.75;;;8.43;100.00
52983;BME280;48698;45.736;13.926;2024-03-02T03:01:03;96801.84;;;7.91;100.00
52983;BME280;48698;45.736;13.926;2024-03-02T03:06:07;96783.03;;;7.64;100.00
52983;BME280;48698;45.736;13.926;2024-03-02T03:11:11;96788.16;;;7.50;100.00
52983;BME280;48698;45.736;13.926;2024-03-02T03:16:15;96840.59;;;7.74;100.00
52983;BME280;48698;45.736;13.926;2024-03-02T03:21:18;96845.34;;;7.68;100.00
52983;BME280;48698;45.736;13.926;2024-03-02T03:26:22;96766.09;;;7.01;100.00
52983;BME280;48698;45.736;13.926;2024-03-02T03:31:25;96775.25;;;7.28;100.00
52983;BME280;48698;45.736;13.926;2024-03-02T03:36:28;96920.94;;;8.05;100.00
52983;BME280;48698;45.736;13.926;2024-03-02T03:41:32;96857.91;;;7.80;100.00
52983;BME280;48698;45.736;13.926;2024-03-02T03:46:36;96814.81;;;7.62;100.00
52983;BME280;48698;45.736;13.926;2024-03-02T03:51:39;96788.53;;;7.59;100.00
52983;BME280;48698;45.736;13.926;2024-03-02T03:56:43;96749.09;;;7.39;100.00
52983;BME280;48698;45.736;13.926;2024-03-02T04:01:46;96817.22;;;7.67;100.00
52983;BME280;48698;45.736;13.926;2024-03-02T04:06:50;96690.94;;;6.91;100.00
52983;BME280;48698;45.736;13.926;2024-03-02T04:11:53;96917.81;;;8.31;100.00
52983;BME280;48698;45.736;13.926;2024-03-02T04:16:57;96801.16;;;7.54;100.00
52983;BME280;48698;45.736;13.926;2024-03-02T04:22:01;96921.22;;;8.33;100.00
52983;BME280;48698;45.736;13.926;2024-03-02T04:27:19;96897.59;;;8.13;100.00
52983;BME280;48698;45.736;13.926;2024-03-02T04:32:23;96910.25;;;8.23;100.00
52983;BME280;48698;45.736;13.926;2024-03-02T04:37:27;96793.22;;;7.54;100.00
52983;BME280;48698;45.736;13.926;2024-03-02T04:42:30;96911.13;;;8.07;100.00
52983;BME280;48698;45.736;13.926;2024-03-02T04:47:34;96934.91;;;8.24;100.00
52983;BME280;48698;45.736;13.926;2024-03-02T04:52:38;96912.91;;;8.06;100.00
52983;BME280;48698;45.736;13.926;2024-03-02T04:57:42;96672.69;;;6.86;100.00
52983;BME280;48698;45.736;13.926;2024-03-02T05:02:46;96806.28;;;7.57;100.00
52983;BME280;48698;45.736;13.926;2024-03-02T05:07:50;96931.03;;;8.14;100.00
52983;BME280;48698;45.736;13.926;2024-03-02T05:12:54;96900.50;;;8.08;100.00
52983;BME280;48698;45.736;13.926;2024-03-02T05:18:00;96660.47;;;6.51;100.00
52983;BME280;48698;45.736;13.926;2024-03-02T05:23:06;96891.09;;;7.86;100.00
52983;BME280;48698;45.736;13.926;2024-03-02T05:28:09;96892.66;;;7.90;100.00
52983;BME280;48698;45.736;13.926;2024-03-02T05:33:13;96930.72;;;8.20;100.00
52983;BME280;48698;45.736;13.926;2024-03-02T05:38:16;96854.06;;;7.53;100.00
52983;BME280;48698;45.736;13.926;2024-03-02T05:43:20;96847.84;;;7.54;100.00
52983;BME280;48698;45.736;13.926;2024-03-02T05:48:23;96883.59;;;7.78;100.00
52983;BME280;48698;45.736;13.926;2024-03-02T05:53:27;96929.19;;;7.99;100.00
52983;BME280;48698;45.736;13.926;2024-03-02T05:58:31;96863.47;;;7.58;100.00
52983;BME280;48698;45.736;13.926;2024-03-02T06:03:51;96706.00;;;6.54;100.00
52983;BME280;48698;45.736;13.926;2024-03-02T06:08:54;96849.09;;;7.64;100.00
52983;BME280;48698;45.736;13.926;2024-03-02T06:13:58;96856.47;;;7.74;100.00
52983;BME280;48698;45.736;13.926;2024-03-02T06:19:02;96981.72;;;8.39;100.00
52983;BME280;48698;45.736;13.926;2024-03-02T06:24:05;96962.44;;;8.37;100.00
52983;BME280;48698;45.736;13.926;2024-03-02T06:29:09;96864.94;;;7.64;100.00
52983;BME280;48698;45.736;13.926;2024-03-02T06:34:13;96847.78;;;7.55;100.00
52983;BME280;48698;45.736;13.926;2024-03-02T06:39:16;96808.78;;;7.26;100.00
52983;BME280;48698;45.736;13.926;2024-03-02T06:44:20;96984.81;;;8.32;100.00
52983;BME280;48698;45.736;13.926;2024-03-02T06:49:24;96751.09;;;6.84;100.00
52983;BME280;48698;45.736;13.926;2024-03-02T06:54:28;97011.25;;;8.32;100.00
52983;BME280;48698;45.736;13.926;2024-03-02T06:59:31;97021.50;;;8.38;100.00
52983;BME280;48698;45.736;13.926;2024-03-02T07:04:34;96848.25;;;7.29;100.00
52983;BME280;48698;45.736;13.926;2024-03-02T07:09:38;96944.59;;;7.91;100.00
52983;BME280;48698;45.736;13.926;2024-03-02T07:14:42;97009.22;;;8.37;100.00
52983;BME280;48698;45.736;13.926;2024-03-02T07:20:11;97030.72;;;8.63;100.00
52983;BME280;48698;45.736;13.926;2024-03-02T07:25:15;97045.94;;;8.75;100.00
52983;BME280;48698;45.736;13.926;2024-03-02T07:30:21;96984.34;;;8.56;100.00
52983;BME280;48698;45.736;13.926;2024-03-02T07:35:26;97009.84;;;8.90;100.00
52983;BME280;48698;45.736;13.926;2024-03-02T07:40:30;96965.25;;;8.67;100.00
52983;BME280;48698;45.736;13.926;2024-03-02T07:45:34;96950.47;;;8.78;100.00
52983;BME280;48698;45.736;13.926;2024-03-02T07:50:41;97040.63;;;9.55;100.00
52983;BME280;48698;45.736;13.926;2024-03-02T07:55:44;96972.28;;;9.30;100.00
52983;BME280;48698;45.736;13.926;2024-03-02T08:00:48;96997.53;;;9.52;100.00
52983;BME280;48698;45.736;13.926;2024-03-02T08:05:55;97032.53;;;9.88;100.00
52983;BME280;48698;45.736;13.926;2024-03-02T08:10:59;97035.97;;;9.90;100.00
52983;BME280;48698;45.736;13.926;2024-03-02T08:16:03;96999.94;;;9.56;100.00
52983;BME280;48698;45.736;13.926;2024-03-02T08:21:10;97027.38;;;9.71;100.00
52983;BME280;48698;45.736;13.926;2024-03-02T08:26:13;97028.75;;;9.62;100.00
52983;BME280;48698;45.736;13.926;2024-03-02T08:31:17;97057.38;;;9.71;100.00
52983;BME280;48698;45.736;13.926;2024-03-02T08:36:20;96998.28;;;9.69;100.00
52983;BME280;48698;45.736;13.926;2024-03-02T08:41:24;96888.31;;;9.01;100.00
52983;BME280;48698;45.736;13.926;2024-03-02T08:46:27;97045.97;;;10.16;100.00
52983;BME280;48698;45.736;13.926;2024-03-02T08:51:31;97005.72;;;10.08;100.00
52983;BME280;48698;45.736;13.926;2024-03-02T08:56:35;97023.41;;;10.08;100.00
52983;BME280;48698;45.736;13.926;2024-03-02T09:01:38;96972.75;;;10.12;100.00
52983;BME280;48698;45.736;13.926;2024-03-02T09:06:45;97032.81;;;10.29;100.00
52983;BME280;48698;45.736;13.926;2024-03-02T09:11:48;97032.81;;;10.29;100.00
52983;BME280;48698;45.736;13.926;2024-03-02T09:16:51;96926.25;;;9.77;100.00
52983;BME280;48698;45.736;13.926;2024-03-02T09:21:55;97027.53;;;10.57;100.00
52983;BME280;48698;45.736;13.926;2024-03-02T09:27:02;96947.47;;;10.07;100.00
52983;BME280;48698;45.736;13.926;2024-03-02T09:32:07;97034.13;;;10.80;100.00
52983;BME280;48698;45.736;13.926;2024-03-02T09:37:10;97030.69;;;11.06;100.00
52983;BME280;48698;45.736;13.926;2024-03-02T09:42:14;96978.63;;;10.89;100.00
52983;BME280;48698;45.736;13.926;2024-03-02T09:47:17;97007.25;;;11.54;100.00
52983;BME280;48698;45.736;13.926;2024-03-02T09:52:22;97026.50;;;11.71;100.00
52983;BME280;48698;45.736;13.926;2024-03-02T09:57:27;97030.81;;;11.60;100.00
52983;BME280;48698;45.736;13.926;2024-03-02T10:02:30;97029.53;;;11.65;100.00
52983;BME280;48698;45.736;13.926;2024-03-02T10:07:34;97001.72;;;11.71;100.00
52983;BME280;48698;45.736;13.926;2024-03-02T10:12:38;97030.34;;;12.07;100.00
52983;BME280;48698;45.736;13.926;2024-03-02T10:17:41;97027.16;;;11.61;100.00
52983;BME280;48698;45.736;13.926;2024-03-02T10:22:45;97001.41;;;10.79;100.00
52983;BME280;48698;45.736;13.926;2024-03-02T10:27:50;97070.44;;;11.36;100.00
52983;BME280;48698;45.736;13.926;2024-03-02T10:32:54;97034.75;;;11.67;100.00
52983;BME280;48698;45.736;13.926;2024-03-02T10:37:59;97033.25;;;11.63;100.00
52983;BME280;48698;45.736;13.926;2024-03-02T10:43:03;97055.13;;;11.95;100.00
52983;BME280;48698;45.736;13.926;2024-03-02T10:48:09;97009.84;;;11.41;100.00
52983;BME280;48698;45.736;13.926;2024-03-02T10:53:13;97052.75;;;11.90;100.00
52983;BME280;48698;45.736;13.926;2024-03-02T10:58:18;96790.03;;;10.49;100.00
52983;BME280;48698;45.736;13.926;2024-03-02T11:03:23;97023.16;;;12.21;100.00
52983;BME280;48698;45.736;13.926;2024-03-02T11:08:27;96916.50;;;11.46;100.00
52983;BME280;48698;45.736;13.926;2024-03-02T11:13:32;96991.31;;;11.80;100.00
52983;BME280;48698;45.736;13.926;2024-03-02T11:18:41;97020.09;;;11.47;100.00
52983;BME280;48698;45.736;13.926;2024-03-02T11:23:45;97045.19;;;11.43;100.00
52983;BME280;48698;45.736;13.926;2024-03-02T11:28:49;97015.56;;;11.35;100.00
52983;BME280;48698;45.736;13.926;2024-03-02T11:33:53;96802.78;;;10.97;100.00
52983;BME280;48698;45.736;13.926;2024-03-02T11:38:57;96999.75;;;12.77;100.00
52983;BME280;48698;45.736;13.926;2024-03-02T11:44:03;96993.69;;;12.87;100.00
52983;BME280;48698;45.736;13.926;2024-03-02T11:49:07;96971.91;;;13.55;100.00
52983;BME280;48698;45.736;13.926;2024-03-02T11:54:12;96987.59;;;12.98;100.00
52983;BME280;48698;45.736;13.926;2024-03-02T11:59:16;96865.28;;;11.69;100.00
52983;BME280;48698;45.736;13.926;2024-03-02T12:04:21;96883.22;;;11.40;100.00
52983;BME280;48698;45.736;13.926;2024-03-02T12:09:28;96963.06;;;11.65;100.00
52983;BME280;48698;45.736;13.926;2024-03-02T12:14:34;96800.22;;;10.42;100.00
52983;BME280;48698;45.736;13.926;2024-03-02T12:19:37;96993.97;;;10.84;100.00
52983;BME280;48698;45.736;13.926;2024-03-02T12:24:41;97030.00;;;10.46;100.00
52983;BME280;48698;45.736;13.926;2024-03-02T12:29:45;96971.22;;;9.78;100.00
52983;BME280;48698;45.736;13.926;2024-03-02T12:34:50;96976.09;;;9.25;100.00
52983;BME280;48698;45.736;13.926;2024-03-02T12:39:54;97002.88;;;9.20;100.00
52983;BME280;48698;45.736;13.926;2024-03-02T12:44:57;97043.41;;;8.90;100.00
52983;BME280;48698;45.736;13.926;2024-03-02T12:50:02;97002.09;;;8.54;100.00
52983;BME280;48698;45.736;13.926;2024-03-02T12:55:07;97022.94;;;8.60;100.00
52983;BME280;48698;45.736;13.926;2024-03-02T13:00:11;97057.81;;;9.17;100.00
52983;BME280;48698;45.736;13.926;2024-03-02T13:05:16;97118.28;;;9.88;100.00
52983;BME280;48698;45.736;13.926;2024-03-02T13:10:20;97075.19;;;9.54;100.00
52983;BME280;48698;45.736;13.926;2024-03-02T13:15:23;97117.19;;;9.77;100.00
52983;BME280;48698;45.736;13.926;2024-03-02T13:20:33;96991.66;;;8.84;100.00
52983;BME280;48698;45.736;13.926;2024-03-02T13:25:37;97090.41;;;9.50;100.00
52983;BME280;48698;45.736;13.926;2024-03-02T13:30:44;97104.44;;;9.52;100.00
52983;BME280;48698;45.736;13.926;2024-03-02T13:35:51;97134.19;;;9.73;100.00
52983;BME280;48698;45.736;13.926;2024-03-02T13:40:55;97015.31;;;8.87;100.00
52983;BME280;48698;45.736;13.926;2024-03-02T13:45:59;97097.34;;;9.53;100.00
52983;BME280;48698;45.736;13.926;2024-03-02T13:51:03;97133.00;;;9.78;100.00
52983;BME280;48698;45.736;13.926;2024-03-02T13:56:07;97038.13;;;9.05;100.00
52983;BME280;48698;45.736;13.926;2024-03-02T14:01:10;97095.88;;;9.47;100.00
52983;BME280;48698;45.736;13.926;2024-03-02T14:06:15;97155.91;;;9.95;100.00
52983;BME280;48698;45.736;13.926;2024-03-02T14:11:18;97128.47;;;9.80;100.00
52983;BME280;48698;45.736;13.926;2024-03-02T14:16:22;97068.34;;;9.50;100.00
52983;BME280;48698;45.736;13.926;2024-03-02T14:21:26;97108.22;;;9.64;100.00
52983;BME280;48698;45.736;13.926;2024-03-02T14:26:30;97136.09;;;9.71;100.00
52983;BME280;48698;45.736;13.926;2024-03-02T14:31:33;97035.00;;;9.14;100.00
52983;BME280;48698;45.736;13.926;2024-03-02T14:36:37;97146.06;;;9.81;100.00
52983;BME280;48698;45.736;13.926;2024-03-02T14:41:41;97127.34;;;9.53;100.00
52983;BME280;48698;45.736;13.926;2024-03-02T14:46:48;97167.97;;;9.69;100.00
52983;BME280;48698;45.736;13.926;2024-03-02T14:51:52;97144.28;;;9.82;100.00
52983;BME280;48698;45.736;13.926;2024-03-02T14:56:56;97166.19;;;10.01;100.00
52983;BME280;48698;45.736;13.926;2024-03-02T15:02:00;97154.88;;;9.82;100.00
52983;BME280;48698;45.736;13.926;2024-03-02T15:07:04;97127.75;;;9.61;100.00
52983;BME280;48698;45.736;13.926;2024-03-02T15:12:07;97166.53;;;9.79;100.00
52983;BME280;48698;45.736;13.926;2024-03-02T15:17:16;97151.03;;;9.41;100.00
52983;BME280;48698;45.736;13.926;2024-03-02T15:22:21;97154.75;;;9.21;100.00
52983;BME280;48698;45.736;13.926;2024-03-02T15:27:25;97173.13;;;9.24;100.00
52983;BME280;48698;45.736;13.926;2024-03-02T15:32:30;97169.34;;;9.28;100.00
52983;BME280;48698;45.736;13.926;2024-03-02T15:37:36;97145.56;;;9.11;100.00
52983;BME280;48698;45.736;13.926;2024-03-02T15:42:39;97170.44;;;9.41;100.00
52983;BME280;48698;45.736;13.926;2024-03-02T15:47:43;97166.31;;;9.51;100.00
52983;BME280;48698;45.736;13.926;2024-03-02T15:52:46;97187.78;;;9.47;100.00
52983;BME280;48698;45.736;13.926;2024-03-02T15:57:50;97138.63;;;9.08;100.00
52983;BME280;48698;45.736;13.926;2024-03-02T16:02:55;97119.34;;;8.89;100.00
52983;BME280;48698;45.736;13.926;2024-03-02T16:07:58;97148.50;;;9.22;100.00
52983;BME280;48698;45.736;13.926;2024-03-02T16:13:02;97192.53;;;9.57;100.00
52983;BME280;48698;45.736;13.926;2024-03-02T16:18:06;97167.16;;;9.36;100.00
52983;BME280;48698;45.736;13.926;2024-03-02T16:23:10;97147.72;;;9.20;100.00
52983;BME280;48698;45.736;13.926;2024-03-02T16:28:14;97077.13;;;8.70;100.00
52983;BME280;48698;45.736;13.926;2024-03-02T16:33:17;97137.50;;;8.97;100.00
52983;BME280;48698;45.736;13.926;2024-03-02T16:38:22;97145.94;;;8.88;100.00
52983;BME280;48698;45.736;13.926;2024-03-02T16:43:26;97158.53;;;9.00;100.00
52983;BME280;48698;45.736;13.926;2024-03-02T16:48:29;97152.00;;;8.90;100.00
52983;BME280;48698;45.736;13.926;2024-03-02T16:53:33;97179.22;;;9.09;100.00
52983;BME280;48698;45.736;13.926;2024-03-02T16:58:37;97207.13;;;8.99;100.00
52983;BME280;48698;45.736;13.926;2024-03-02T17:03:41;97211.00;;;8.92;100.00
52983;BME280;48698;45.736;13.926;2024-03-02T17:08:44;97214.47;;;8.94;100.00
52983;BME280;48698;45.736;13.926;2024-03-02T17:13:48;97183.38;;;8.80;100.00
52983;BME280;48698;45.736;13.926;2024-03-02T17:18:54;97208.22;;;8.77;100.00
52983;BME280;48698;45.736;13.926;2024-03-02T17:23:58;97159.81;;;8.41;100.00
52983;BME280;48698;45.736;13.926;2024-03-02T17:29:01;97199.63;;;8.55;100.00
52983;BME280;48698;45.736;13.926;2024-03-02T17:34:04;97258.22;;;8.83;100.00
52983;BME280;48698;45.736;13.926;2024-03-02T17:39:08;97235.47;;;8.79;100.00
52983;BME280;48698;45.736;13.926;2024-03-02T17:44:12;97234.84;;;8.92;100.00
52983;BME280;48698;45.736;13.926;2024-03-02T17:49:16;97194.69;;;8.66;100.00
52983;BME280;48698;45.736;13.926;2024-03-02T17:54:22;97210.69;;;8.46;100.00
52983;BME280;48698;45.736;13.926;2024-03-02T17:59:25;97233.63;;;8.81;100.00
52983;BME280;48698;45.736;13.926;2024-03-02T18:04:29;97136.81;;;8.24;100.00
52983;BME280;48698;45.736;13.926;2024-03-02T18:09:32;97255.41;;;8.87;100.00
52983;BME280;48698;45.736;13.926;2024-03-02T18:14:36;97223.63;;;8.35;100.00
52983;BME280;48698;45.736;13.926;2024-03-02T18:19:42;97266.09;;;8.68;100.00
52983;BME280;48698;45.736;13.926;2024-03-02T18:24:45;97270.44;;;8.86;100.00
52983;BME280;48698;45.736;13.926;2024-03-02T18:29:49;97132.50;;;8.05;100.00
52983;BME280;48698;45.736;13.926;2024-03-02T18:34:53;97245.91;;;8.82;100.00
52983;BME280;48698;45.736;13.926;2024-03-02T18:39:57;97227.69;;;8.76;100.00
52983;BME280;48698;45.736;13.926;2024-03-02T18:45:01;97273.66;;;8.93;100.00
52983;BME280;48698;45.736;13.926;2024-03-02T18:50:08;97261.50;;;8.71;100.00
52983;BME280;48698;45.736;13.926;2024-03-02T18:55:12;97234.22;;;8.69;100.00
52983;BME280;48698;45.736;13.926;2024-03-02T19:00:16;97266.84;;;8.70;100.00
52983;BME280;48698;45.736;13.926;2024-03-02T19:05:20;97227.59;;;8.44;100.00
52983;BME280;48698;45.736;13.926;2024-03-02T19:10:23;97155.34;;;8.06;100.00
52983;BME280;48698;45.736;13.926;2024-03-02T19:15:27;97223.91;;;8.46;100.00
52983;BME280;48698;45.736;13.926;2024-03-02T19:20:31;97203.84;;;8.42;100.00
52983;BME280;48698;45.736;13.926;2024-03-02T19:25:34;97245.03;;;8.48;100.00
52983;BME280;48698;45.736;13.926;2024-03-02T19:30:38;97214.13;;;8.48;100.00
52983;BME280;48698;45.736;13.926;2024-03-02T19:35:47;97205.22;;;8.32;100.00
52983;BME280;48698;45.736;13.926;2024-03-02T19:40:50;97245.94;;;8.47;100.00
52983;BME280;48698;45.736;13.926;2024-03-02T19:45:54;97151.31;;;7.80;100.00
52983;BME280;48698;45.736;13.926;2024-03-02T19:50:57;97250.75;;;8.39;100.00
52983;BME280;48698;45.736;13.926;2024-03-02T19:56:01;97279.69;;;8.60;100.00
52983;BME280;48698;45.736;13.926;2024-03-02T20:01:05;97259.06;;;8.31;100.00
52983;BME280;48698;45.736;13.926;2024-03-02T20:06:09;97191.53;;;7.87;100.00
52983;BME280;48698;45.736;13.926;2024-03-02T20:11:12;97248.69;;;8.26;100.00
52983;BME280;48698;45.736;13.926;2024-03-02T20:16:16;97175.19;;;7.78;100.00
52983;BME280;48698;45.736;13.926;2024-03-02T20:21:23;97252.94;;;8.30;100.00
52983;BME280;48698;45.736;13.926;2024-03-02T20:26:28;97280.63;;;8.59;100.00
52983;BME280;48698;45.736;13.926;2024-03-02T20:31:31;97274.34;;;8.43;100.00
52983;BME280;48698;45.736;13.926;2024-03-02T20:36:35;97213.75;;;8.01;100.00
52983;BME280;48698;45.736;13.926;2024-03-02T20:41:39;97287.63;;;8.60;100.00
52983;BME280;48698;45.736;13.926;2024-03-02T20:46:43;97275.00;;;8.48;100.00
52983;BME280;48698;45.736;13.926;2024-03-02T20:51:46;97195.56;;;7.95;100.00
52983;BME280;48698;45.736;13.926;2024-03-02T20:56:50;97257.47;;;8.27;100.00
52983;BME280;48698;45.736;13.926;2024-03-02T21:01:55;97185.53;;;8.02;100.00
52983;BME280;48698;45.736;13.926;2024-03-02T21:06:58;97195.00;;;8.06;100.00
52983;BME280;48698;45.736;13.926;2024-03-02T21:12:02;97272.25;;;8.50;100.00
52983;BME280;48698;45.736;13.926;2024-03-02T21:17:08;97248.09;;;8.39;100.00
52983;BME280;48698;45.736;13.926;2024-03-02T21:22:12;97150.81;;;7.91;100.00
52983;BME280;48698;45.736;13.926;2024-03-02T21:27:15;97223.53;;;8.37;100.00
52983;BME280;48698;45.736;13.926;2024-03-02T21:32:22;97269.56;;;8.68;100.00
52983;BME280;48698;45.736;13.926;2024-03-02T21:37:26;97273.63;;;8.75;100.00
52983;BME280;48698;45.736;13.926;2024-03-02T21:42:33;97262.41;;;8.70;100.00
52983;BME280;48698;45.736;13.926;2024-03-02T21:47:37;97253.00;;;8.65;100.00
52983;BME280;48698;45.736;13.926;2024-03-02T21:52:40;97254.53;;;8.69;100.00
52983;BME280;48698;45.736;13.926;2024-03-02T21:57:44;97245.28;;;8.60;100.00
52983;BME280;48698;45.736;13.926;2024-03-02T22:02:50;97168.00;;;8.18;100.00
52983;BME280;48698;45.736;13.926;2024-03-02T22:07:57;97275.19;;;8.79;100.00
52983;BME280;48698;45.736;13.926;2024-03-02T22:13:01;97196.91;;;8.40;100.00
52983;BME280;48698;45.736;13.926;2024-03-02T22:18:04;97250.47;;;8.62;100.00
52983;BME280;48698;45.736;13.926;2024-03-02T22:23:08;97218.47;;;8.49;100.00
52983;BME280;48698;45.736;13.926;2024-03-02T22:28:12;97223.00;;;8.47;100.00
52983;BME280;48698;45.736;13.926;2024-03-02T22:33:16;97282.50;;;8.92;100.00
52983;BME280;48698;45.736;13.926;2024-03-02T22:38:20;97267.09;;;8.82;100.00
52983;BME280;48698;45.736;13.926;2024-03-02T22:43:23;97271.63;;;8.98;100.00
52983;BME280;48698;45.736;13.926;2024-03-02T22:48:27;97212.13;;;8.70;100.00
52983;BME280;48698;45.736;13.926;2024-03-02T22:53:31;97273.88;;;9.05;100.00
52983;BME280;48698;45.736;13.926;2024-03-02T22:58:35;97219.91;;;8.73;100.00
52983;BME280;48698;45.736;13.926;2024-03-02T23:03:40;97260.03;;;9.00;100.00
52983;BME280;48698;45.736;13.926;2024-03-02T23:08:44;97218.03;;;8.75;100.00
52983;BME280;48698;45.736;13.926;2024-03-02T23:13:48;97184.94;;;8.67;100.00
52983;BME280;48698;45.736;13.926;2024-03-02T23:18:51;97180.03;;;8.59;100.00
52983;BME280;48698;45.736;13.926;2024-03-02T23:23:55;97261.09;;;9.13;100.00
52983;BME280;48698;45.736;13.926;2024-03-02T23:29:00;97254.03;;;9.14;100.00
52983;BME280;48698;45.736;13.926;2024-03-02T23:34:04;97208.13;;;8.79;100.00
52983;BME280;48698;45.736;13.926;2024-03-02T23:39:11;97242.94;;;9.06;100.00
52983;BME280;48698;45.736;13.926;2024-03-02T23:44:35;97223.66;;;8.87;100.00
52983;BME280;48698;45.736;13.926;2024-03-02T23:49:38;97185.34;;;8.76;100.00
52983;BME280;48698;45.736;13.926;2024-03-02T23:54:42;97198.03;;;8.87;100.00
52983;BME280;48698;45.736;13.926;2024-03-02T23:59:46;97111.44;;;8.20;100.00
